Time;durP1;ratioP1;P1;durP2;ratioP2;P2;SDS_P1;SDS_P2;PMS_P1;PMS_P2;Temp;Humidity;BMP_temperature;BMP_pressure;BME280_temperature;BME280_humidity;BME280_pressure;Samples;Min_cycle;Max_cycle;Signal;HPM_P1;HPM_P2
2023/08/06 00:01:59;;;;;;;;;0.00;0.00;;;;;15.81;89.24;100699.34;5082410;27;45375;-46
2023/08/06 00:04:25;;;;;;;;;0.00;0.00;;;;;15.81;89.71;100720.81;5089675;27;45410;-47
2023/08/06 00:06:50;;;;;;;;;0.00;0.00;;;;;15.82;89.39;100706.41;5096602;27;45679;-46
2023/08/06 00:09:15;;;;;;;;;0.00;0.00;;;;;15.86;88.88;100707.88;5054040;27;48199;-50
2023/08/06 00:11:43;;;;;;;;;0.00;0.00;;;;;15.86;89.53;100717.75;5093715;27;64999;-45
2023/08/06 00:14:09;;;;;;;;;0.00;0.00;;;;;15.84;89.75;100717.03;5081126;27;45499;-49
2023/08/06 00:16:34;;;;;;;;;0.00;0.00;;;;;15.85;89.55;100722.28;5077326;27;50110;-46
2023/08/06 00:18:59;;;;;;;;;0.00;0.00;;;;;15.88;89.74;100742.66;5097805;27;72805;-46
2023/08/06 00:21:24;;;;;;;;;0.00;0.00;;;;;15.91;88.99;100734.38;5054687;28;72721;-46
2023/08/06 00:23:52;;;;;;;;;0.00;0.00;;;;;15.89;88.66;100736.31;5090181;27;67233;-46
2023/08/06 00:26:17;;;;;;;;;0.00;0.00;;;;;15.88;88.83;100739.97;5096304;27;45483;-47
2023/08/06 00:28:42;;;;;;;;;0.00;0.00;;;;;15.86;88.58;100750.78;5087315;27;45470;-47
2023/08/06 00:31:08;;;;;;;;;0.00;0.00;;;;;15.87;88.40;100757.03;5093807;27;63234;-48
2023/08/06 00:33:33;;;;;;;;;1.00;0.00;;;;;15.87;88.65;100757.88;5093114;27;66620;-49
2023/08/06 00:35:58;;;;;;;;;1.33;0.00;;;;;15.87;88.43;100765.91;5082488;27;59434;-47
2023/08/06 00:38:23;;;;;;;;;0.00;0.00;;;;;15.84;88.05;100762.63;5078540;27;62529;-48
2023/08/06 00:40:49;;;;;;;;;0.00;0.00;;;;;15.82;87.88;100764.56;5093735;27;72502;-46
2023/08/06 00:43:14;;;;;;;;;1.00;0.00;;;;;15.83;87.74;100772.47;5069605;28;65595;-50
2023/08/06 00:45:39;;;;;;;;;0.67;0.00;;;;;15.86;87.90;100792.84;5091806;27;65200;-50
2023/08/06 00:48:06;;;;;;;;;0.00;0.00;;;;;15.83;87.42;100774.31;5086143;27;73579;-47
2023/08/06 00:50:31;;;;;;;;;0.00;0.00;;;;;15.80;87.79;100782.53;5074372;27;45838;-47
2023/08/06 00:52:57;;;;;;;;;0.00;0.00;;;;;15.76;87.65;100781.94;5073326;27;66379;-48
2023/08/06 00:55:22;;;;;;;;;0.25;0.00;;;;;15.75;88.00;100788.25;5069333;28;53308;-46
2023/08/06 00:57:48;;;;;;;;;0.25;0.25;;;;;15.73;87.35;100784.81;5095655;27;56557;-47
2023/08/06 01:00:13;;;;;;;;;0.00;0.00;;;;;15.71;88.22;100789.44;5076427;27;72766;-45
2023/08/06 01:02:39;;;;;;;;;0.00;0.00;;;;;15.68;88.35;100787.84;5088575;27;45609;-46
2023/08/06 01:05:04;;;;;;;;;0.00;0.00;;;;;15.68;88.59;100790.53;5095345;27;59509;-45
2023/08/06 01:08:08;;;;;;;;;0.00;0.00;;;;;15.73;88.14;100797.38;5094033;27;46006;-46
2023/08/06 01:10:39;;;;;;;;;0.00;0.00;;;;;15.70;88.18;100793.94;5084062;27;45398;-48
2023/08/06 01:13:17;;;;;;;;;1.67;1.00;;;;;15.70;88.30;100804.66;5071492;27;45490;-47
2023/08/06 01:15:46;;;;;;;;;0.67;0.33;;;;;15.69;87.97;100797.56;5088078;27;45408;-46
2023/08/06 01:18:12;;;;;;;;;0.00;0.00;;;;;15.69;87.64;100808.28;5100387;27;46245;-47
2023/08/06 01:20:37;;;;;;;;;1.00;1.00;;;;;15.67;87.80;100810.25;5095105;27;73091;-47
2023/08/06 01:23:02;;;;;;;;;1.25;0.00;;;;;15.66;87.43;100821.94;5080407;27;63436;-46
2023/08/06 01:25:39;;;;;;;;;0.00;0.00;;;;;15.67;87.75;100822.78;5097820;27;67819;-45
2023/08/06 01:28:12;;;;;;;;;1.25;1.00;;;;;15.68;87.22;100825.38;5078377;27;46237;-46
2023/08/06 01:30:40;;;;;;;;;1.00;1.00;;;;;15.67;87.74;100831.69;5077593;27;45478;-46
2023/08/06 01:33:08;;;;;;;;;1.00;1.00;;;;;15.64;87.38;100833.72;5085666;27;45366;-46
2023/08/06 01:35:35;;;;;;;;;0.33;0.33;;;;;15.61;86.78;100840.16;5083194;27;45417;-47
2023/08/06 01:38:01;;;;;;;;;2.00;2.00;;;;;15.57;86.80;100845.88;5077522;27;47188;-48
2023/08/06 01:40:28;;;;;;;;;2.67;2.00;;;;;15.55;86.76;100845.94;5081140;27;45573;-47
2023/08/06 01:42:53;;;;;;;;;1.00;1.00;;;;;15.52;86.85;100851.53;5064336;27;45510;-46
2023/08/06 01:45:19;;;;;;;;;0.00;0.00;;;;;15.50;86.20;100857.00;5080232;27;65490;-49
2023/08/06 01:47:44;;;;;;;;;1.67;1.33;;;;;15.49;86.24;100867.84;5085776;27;72954;-46
2023/08/06 01:50:09;;;;;;;;;1.00;1.00;;;;;15.47;86.04;100856.38;5100605;27;45398;-46
2023/08/06 01:52:35;;;;;;;;;1.00;0.33;;;;;15.45;86.32;100875.25;5079479;27;69091;-45
2023/08/06 01:55:00;;;;;;;;;1.00;1.00;;;;;15.46;86.28;100881.44;5087421;27;64022;-46
2023/08/06 01:57:25;;;;;;;;;3.33;2.00;;;;;15.45;86.00;100874.38;5100156;27;65294;-48
2023/08/06 01:59:50;;;;;;;;;1.00;1.00;;;;;15.46;86.03;100876.97;5100324;27;71606;-46
2023/08/06 02:02:16;;;;;;;;;5.67;1.00;;;;;15.45;86.00;100885.97;5100179;27;61656;-46
2023/08/06 02:04:41;;;;;;;;;2.00;2.00;;;;;15.45;85.75;100890.44;5098572;27;66782;-47
2023/08/06 02:07:06;;;;;;;;;1.00;0.00;;;;;15.47;85.50;100893.88;5097413;27;63037;-46
2023/08/06 02:09:32;;;;;;;;;3.00;1.33;;;;;15.45;85.39;100893.13;5100802;27;45251;-46
2023/08/06 02:11:57;;;;;;;;;2.67;2.00;;;;;15.42;85.30;100894.19;5099919;27;45509;-46
2023/08/06 02:14:23;;;;;;;;;1.33;1.33;;;;;15.41;84.98;100910.38;5081835;27;45588;-46
2023/08/06 02:16:49;;;;;;;;;2.00;2.00;;;;;15.37;84.61;100904.41;5095363;27;70858;-46
2023/08/06 02:19:14;;;;;;;;;2.67;1.33;;;;;15.33;84.79;100913.59;5093663;27;45758;-50
2023/08/06 02:21:40;;;;;;;;;3.33;2.00;;;;;15.33;84.94;100918.94;5079920;27;66139;-49
2023/08/06 02:24:05;;;;;;;;;2.00;1.67;;;;;15.33;85.36;100917.16;5098418;27;56987;-48
2023/08/06 02:26:30;;;;;;;;;2.00;2.00;;;;;15.31;85.21;100915.53;5088213;27;46025;-49
2023/08/06 02:28:56;;;;;;;;;0.33;0.33;;;;;15.32;85.26;100930.66;5091302;27;45357;-50
2023/08/06 02:31:21;;;;;;;;;2.33;2.33;;;;;15.31;86.04;100927.09;5095454;27;48447;-49
2023/08/06 02:33:46;;;;;;;;;1.67;1.67;;;;;15.30;86.11;100946.81;5100150;27;60426;-47
2023/08/06 02:36:12;;;;;;;;;2.67;2.67;;;;;15.28;87.05;100940.72;5092709;27;70744;-45
2023/08/06 02:38:37;;;;;;;;;4.33;3.33;;;;;15.27;85.41;100939.00;5092159;27;45392;-47
2023/08/06 02:41:03;;;;;;;;;2.67;1.67;;;;;15.25;85.84;100938.22;5079698;27;68109;-46
2023/08/06 02:43:28;;;;;;;;;1.67;1.67;;;;;15.23;85.97;100945.53;5069881;28;45444;-47
2023/08/06 02:45:57;;;;;;;;;3.33;2.00;;;;;15.24;85.61;100941.00;5086289;27;63910;-46
2023/08/06 02:48:22;;;;;;;;;2.00;2.00;;;;;15.25;85.24;100948.94;5100009;27;45246;-46
2023/08/06 02:50:48;;;;;;;;;2.67;2.00;;;;;15.26;85.10;100950.66;5097096;27;69370;-45
2023/08/06 02:53:13;;;;;;;;;3.67;2.00;;;;;15.29;85.24;100952.28;5092725;27;67525;-48
2023/08/06 02:55:48;;;;;;;;;3.33;3.33;;;;;15.29;85.19;100954.97;5081368;27;74206;-46
2023/08/06 02:58:14;;;;;;;;;1.33;1.33;;;;;15.31;84.60;100963.78;5087927;27;45443;-45
2023/08/06 03:00:40;;;;;;;;;4.33;2.67;;;;;15.27;84.85;100965.78;5098553;27;45471;-48
2023/08/06 03:03:05;;;;;;;;;5.00;3.33;;;;;15.29;84.77;100969.25;5058601;27;45358;-49
2023/08/06 03:05:30;;;;;;;;;4.00;2.67;;;;;15.29;84.46;100969.25;5095948;27;66015;-46
2023/08/06 03:07:56;;;;;;;;;3.00;2.00;;;;;15.28;84.53;100969.31;5097701;27;66696;-47
2023/08/06 03:10:21;;;;;;;;;3.00;3.00;;;;;15.26;84.38;100966.75;5089748;27;57104;-49
2023/08/06 03:12:46;;;;;;;;;4.00;3.00;;;;;15.25;84.57;100966.84;5094854;27;57680;-47
2023/08/06 03:15:12;;;;;;;;;4.33;4.00;;;;;15.22;84.58;100976.81;5086017;27;69224;-46
2023/08/06 03:17:37;;;;;;;;;3.67;3.67;;;;;15.21;84.17;100983.16;5093597;27;63959;-46
2023/08/06 03:20:03;;;;;;;;;4.00;2.00;;;;;15.21;83.92;100979.59;5088798;27;45478;-45
2023/08/06 03:22:28;;;;;;;;;4.00;2.00;;;;;15.18;84.67;100980.66;5086626;27;45550;-45
2023/08/06 03:24:53;;;;;;;;;3.00;2.00;;;;;15.14;84.15;100983.66;5069481;28;68185;-46
2023/08/06 03:27:19;;;;;;;;;2.00;2.00;;;;;15.14;84.92;100984.50;5094912;27;58769;-45
2023/08/06 03:29:44;;;;;;;;;2.67;2.67;;;;;15.11;84.34;100979.34;5090605;27;65130;-46
2023/08/06 03:32:09;;;;;;;;;5.00;3.00;;;;;15.04;84.56;100976.22;5078277;27;56027;-46
2023/08/06 03:34:36;;;;;;;;;6.00;3.67;;;;;14.97;84.16;100977.56;5066088;27;46439;-44
2023/08/06 03:37:01;;;;;;;;;2.67;2.67;;;;;14.92;84.68;100978.84;5093772;27;66768;-45
2023/08/06 03:39:26;;;;;;;;;3.33;3.33;;;;;14.89;85.03;100977.22;5091424;27;45712;-46
2023/08/06 03:41:52;;;;;;;;;5.67;3.33;;;;;14.93;85.46;100989.47;5089883;27;64658;-46
2023/08/06 03:44:17;;;;;;;;;3.67;2.67;;;;;14.97;85.47;100987.44;5089293;27;65828;-46
2023/08/06 03:46:42;;;;;;;;;4.67;2.00;;;;;14.98;84.90;100986.47;5094120;27;45230;-47
2023/08/06 03:49:08;;;;;;;;;4.00;4.00;;;;;15.00;85.14;100989.91;5077960;27;58826;-45
2023/08/06 03:51:33;;;;;;;;;5.00;4.00;;;;;14.98;84.74;100992.69;5094700;27;70148;-45
2023/08/06 03:53:58;;;;;;;;;4.00;2.33;;;;;14.99;85.06;100986.38;5059695;27;71402;-46
2023/08/06 03:56:24;;;;;;;;;2.33;2.00;;;;;15.02;85.44;100988.84;5051680;28;59750;-46
2023/08/06 03:58:49;;;;;;;;;3.00;3.00;;;;;15.08;85.05;100992.94;5093320;27;45551;-46
2023/08/06 04:01:15;;;;;;;;;3.00;3.00;;;;;15.07;84.95;100993.03;5084188;27;45355;-45
2023/08/06 04:03:40;;;;;;;;;3.00;3.00;;;;;15.06;84.18;100997.56;5077712;27;74308;-45
2023/08/06 04:06:06;;;;;;;;;4.67;2.67;;;;;15.04;84.42;101005.69;5082429;27;67785;-49
2023/08/06 04:08:31;;;;;;;;;3.00;3.00;;;;;15.04;84.30;101016.41;5073208;27;67147;-47
2023/08/06 04:10:57;;;;;;;;;3.00;2.00;;;;;15.04;84.31;101021.78;5080506;27;45536;-47
2023/08/06 04:13:22;;;;;;;;;2.67;2.67;;;;;15.05;83.65;101022.63;5084573;27;67405;-49
2023/08/06 04:15:48;;;;;;;;;4.00;4.00;;;;;15.04;84.32;101031.59;5098813;27;46418;-49
2023/08/06 04:18:13;;;;;;;;;4.00;2.00;;;;;15.03;83.58;101038.78;5098543;27;46001;-46
2023/08/06 04:20:45;;;;;;;;;4.00;3.00;;;;;15.05;83.61;101036.00;5088661;27;45343;-45
2023/08/06 04:23:11;;;;;;;;;3.00;3.00;;;;;15.09;83.58;101047.38;5077604;27;45442;-47
2023/08/06 04:25:36;;;;;;;;;5.00;3.67;;;;;15.10;83.22;101044.59;5073352;28;45401;-47
2023/08/06 04:28:01;;;;;;;;;3.00;3.00;;;;;15.05;83.11;101055.59;5073795;27;47480;-47
2023/08/06 04:30:27;;;;;;;;;4.00;4.00;;;;;15.03;82.95;101054.88;5098370;27;66174;-47
2023/08/06 04:32:52;;;;;;;;;3.00;3.00;;;;;15.04;83.43;101055.72;5063451;27;47003;-47
2023/08/06 04:35:17;;;;;;;;;5.00;3.00;;;;;15.06;82.89;101064.53;5095478;27;70109;-46
2023/08/06 04:37:43;;;;;;;;;5.00;3.33;;;;;15.09;83.13;101071.50;5097669;27;67593;-49
2023/08/06 04:40:08;;;;;;;;;2.67;2.67;;;;;15.10;82.89;101066.03;5090343;27;66473;-46
2023/08/06 04:42:34;;;;;;;;;6.00;5.00;;;;;15.11;83.31;101081.16;5093089;27;46791;-46
2023/08/06 04:45:02;;;;;;;;;3.00;3.00;;;;;15.14;83.19;101083.63;5094120;27;69186;-45
2023/08/06 04:47:27;;;;;;;;;5.33;4.00;;;;;15.16;82.73;101078.16;5096483;27;45509;-46
2023/08/06 04:49:53;;;;;;;;;6.00;4.33;;;;;15.19;82.88;101091.38;5087707;27;64829;-47
2023/08/06 04:52:18;;;;;;;;;3.67;3.67;;;;;15.19;83.00;101089.53;5069098;27;45483;-47
2023/08/06 04:54:44;;;;;;;;;4.00;2.33;;;;;15.23;82.70;101098.25;5090326;27;45296;-49
2023/08/06 04:57:09;;;;;;;;;5.33;4.00;;;;;15.26;82.72;101098.03;5099449;27;61569;-46
2023/08/06 04:59:35;;;;;;;;;5.67;3.00;;;;;15.24;82.34;101094.63;5077518;27;45926;-48
2023/08/06 05:02:00;;;;;;;;;3.00;3.00;;;;;15.24;82.40;101101.78;5079630;27;47549;-46
2023/08/06 05:04:26;;;;;;;;;3.67;2.67;;;;;15.25;82.50;101100.81;5098925;27;45346;-46
2023/08/06 05:06:51;;;;;;;;;4.00;3.00;;;;;15.29;82.41;101110.38;5079545;27;57583;-46
2023/08/06 05:09:16;;;;;;;;;4.00;3.00;;;;;15.30;82.28;101110.28;5076570;27;66868;-50
2023/08/06 05:11:42;;;;;;;;;3.33;3.33;;;;;15.30;82.06;101115.63;5098736;27;71058;-48
2023/08/06 05:14:07;;;;;;;;;2.00;2.00;;;;;15.30;81.96;101112.97;5095156;27;62720;-47
2023/08/06 05:16:33;;;;;;;;;2.67;2.67;;;;;15.27;81.69;101118.53;5095482;27;65988;-47
2023/08/06 05:18:58;;;;;;;;;3.00;0.67;;;;;15.28;82.32;101127.41;5096815;27;45515;-46
2023/08/06 05:21:23;;;;;;;;;2.00;2.00;;;;;15.28;81.77;101139.00;5094423;27;61202;-47
2023/08/06 05:23:49;;;;;;;;;2.67;2.67;;;;;15.26;81.62;101132.88;5077602;27;45501;-48
2023/08/06 05:26:18;;;;;;;;;3.00;2.00;;;;;15.24;82.37;101141.97;5093166;27;65331;-48
2023/08/06 05:28:43;;;;;;;;;2.33;2.00;;;;;15.27;82.12;101139.13;5095695;27;45443;-47
2023/08/06 05:31:08;;;;;;;;;5.33;4.00;;;;;15.30;82.53;101145.13;5095412;27;45564;-48
2023/08/06 05:33:34;;;;;;;;;3.00;2.00;;;;;15.31;82.42;101157.56;5096891;27;68185;-47
2023/08/06 05:35:59;;;;;;;;;4.50;3.50;;;;;15.32;82.08;101156.59;5098232;27;46194;-46
2023/08/06 05:38:25;;;;;;;;;3.67;2.67;;;;;15.30;82.03;101163.03;5097023;27;48699;-46
2023/08/06 05:40:50;;;;;;;;;2.33;2.00;;;;;15.30;82.89;101168.38;5096167;27;45995;-47
2023/08/06 05:43:15;;;;;;;;;3.33;3.33;;;;;15.33;82.50;101171.75;5093461;27;63758;-46
2023/08/06 05:45:45;;;;;;;;;4.67;3.00;;;;;15.35;82.37;101180.53;5096276;27;45533;-49
2023/08/06 05:48:10;;;;;;;;;2.00;2.00;;;;;15.36;82.65;101184.09;5077997;27;45632;-47
2023/08/06 05:50:35;;;;;;;;;5.00;3.33;;;;;15.38;82.19;101192.88;5096395;27;70055;-47
2023/08/06 05:53:01;;;;;;;;;3.00;2.67;;;;;15.38;81.79;101190.19;5078800;27;69811;-47
2023/08/06 05:55:26;;;;;;;;;2.67;2.00;;;;;15.36;82.28;101190.28;5099627;27;45481;-48
2023/08/06 05:57:52;;;;;;;;;4.33;3.67;;;;;15.41;82.15;101189.13;5063070;28;67593;-48
2023/08/06 06:00:18;;;;;;;;;2.00;2.00;;;;;15.44;81.64;101189.78;5074207;27;46442;-48
2023/08/06 06:02:43;;;;;;;;;3.00;2.00;;;;;15.50;82.25;101191.22;5082095;27;45395;-47
2023/08/06 06:05:09;;;;;;;;;2.33;2.33;;;;;15.60;81.83;101197.69;5084789;27;45413;-46
2023/08/06 06:07:34;;;;;;;;;2.67;2.67;;;;;15.66;81.21;101193.78;5096040;27;45934;-46
2023/08/06 06:10:00;;;;;;;;;3.00;2.67;;;;;15.73;81.61;101203.13;5094773;27;48183;-50
2023/08/06 06:12:26;;;;;;;;;1.33;1.33;;;;;15.82;81.14;101207.06;5093051;27;45411;-50
2023/08/06 06:14:51;;;;;;;;;2.33;2.33;;;;;15.90;80.47;101217.28;5090738;27;45251;-47
2023/08/06 06:17:16;;;;;;;;;1.00;1.00;;;;;15.93;80.18;101207.22;5090486;27;45542;-47
2023/08/06 06:19:42;;;;;;;;;3.00;3.00;;;;;15.94;79.75;101221.50;5091836;27;68702;-48
2023/08/06 06:22:07;;;;;;;;;2.00;2.00;;;;;15.97;79.24;101223.97;5087936;27;56583;-50
2023/08/06 06:24:32;;;;;;;;;3.00;2.00;;;;;15.98;79.39;101228.38;5068890;27;45399;-49
2023/08/06 06:26:58;;;;;;;;;3.33;2.00;;;;;15.99;78.86;101233.63;5092370;27;63431;-46
2023/08/06 06:29:23;;;;;;;;;3.67;2.00;;;;;16.07;78.93;101243.84;5092654;27;46055;-46
2023/08/06 06:31:49;;;;;;;;;3.33;2.00;;;;;16.17;78.39;101247.66;5070980;27;45516;-47
2023/08/06 06:34:14;;;;;;;;;2.00;2.00;;;;;16.26;78.12;101251.56;5097116;27;65183;-47
2023/08/06 06:36:39;;;;;;;;;2.00;1.00;;;;;16.35;78.10;101252.75;5093360;27;45602;-47
2023/08/06 06:39:05;;;;;;;;;1.00;1.00;;;;;16.45;77.37;101261.91;5074824;27;45893;-47
2023/08/06 06:41:32;;;;;;;;;3.33;2.00;;;;;16.60;77.08;101257.31;5072359;27;45462;-48
2023/08/06 06:43:58;;;;;;;;;1.33;1.33;;;;;16.98;76.77;101255.66;5089151;27;45486;-48
2023/08/06 06:46:23;;;;;;;;;2.33;2.00;;;;;17.52;75.63;101254.53;5092665;27;45511;-47
2023/08/06 06:48:48;;;;;;;;;2.00;2.00;;;;;18.74;74.42;101267.03;5087822;27;72845;-49
2023/08/06 06:51:14;;;;;;;;;3.00;1.67;;;;;19.62;71.03;101260.16;5087216;27;70369;-49
2023/08/06 06:53:39;;;;;;;;;1.00;1.00;;;;;21.51;68.87;101260.47;5084424;27;45425;-46
2023/08/06 06:56:05;;;;;;;;;2.67;1.00;;;;;23.46;64.19;101264.97;5073490;27;63450;-48
2023/08/06 06:58:31;;;;;;;;;2.67;1.67;;;;;26.13;58.78;101265.81;5081437;27;47534;-48
2023/08/06 07:00:56;;;;;;;;;1.25;1.25;;;;;28.55;52.32;101267.44;5096797;27;45398;-47
2023/08/06 07:03:22;;;;;;;;;2.00;0.00;;;;;29.97;50.83;101257.50;5079333;27;45459;-47
2023/08/06 07:05:47;;;;;;;;;3.00;0.75;;;;;31.54;45.87;101273.06;5088071;27;45445;-48
2023/08/06 07:08:12;;;;;;;;;0.50;0.50;;;;;32.31;41.80;101262.78;5091410;27;71762;-47
2023/08/06 07:10:40;;;;;;;;;2.25;1.00;;;;;33.09;40.56;101267.63;5076195;27;70982;-46
2023/08/06 07:13:05;;;;;;;;;3.50;1.00;;;;;34.41;38.26;101282.94;5090131;27;45433;-48
2023/08/06 07:15:30;;;;;;;;;1.00;1.00;;;;;35.59;36.66;101298.81;5081401;27;45413;-47
2023/08/06 07:17:56;;;;;;;;;1.50;1.50;;;;;36.44;34.10;101294.28;5097259;27;68442;-47
2023/08/06 07:20:21;;;;;;;;;1.00;1.00;;;;;37.25;31.21;101299.25;5093949;27;66451;-48
2023/08/06 07:22:46;;;;;;;;;1.00;1.00;;;;;37.45;29.69;101292.50;5084626;27;60230;-47
2023/08/06 07:25:12;;;;;;;;;1.00;1.00;;;;;37.39;28.21;101299.84;5064896;27;45682;-46
2023/08/06 07:27:37;;;;;;;;;1.00;1.00;;;;;37.21;30.17;101296.13;5083523;27;62709;-48
2023/08/06 07:30:05;;;;;;;;;0.00;0.00;;;;;38.29;28.69;101293.88;5083472;27;45534;-49
2023/08/06 07:32:30;;;;;;;;;3.00;1.00;;;;;39.20;27.94;101296.47;5096623;27;45474;-46
2023/08/06 07:34:59;;;;;;;;;1.00;1.00;;;;;37.86;24.76;101307.19;5090995;27;45558;-46
2023/08/06 07:37:24;;;;;;;;;3.00;1.25;;;;;36.89;26.63;101302.03;5091571;27;45506;-47
2023/08/06 07:39:50;;;;;;;;;2.00;2.00;;;;;35.62;27.45;101306.69;5091549;27;45484;-50
2023/08/06 07:42:15;;;;;;;;;2.00;2.00;;;;;34.97;28.38;101308.00;5084474;27;56465;-49
2023/08/06 07:44:40;;;;;;;;;0.25;0.25;;;;;34.13;29.04;101305.41;5086704;27;45533;-46
2023/08/06 07:47:06;;;;;;;;;2.00;2.00;;;;;33.34;28.53;101307.41;5084030;27;74224;-46
2023/08/06 07:49:31;;;;;;;;;2.00;1.00;;;;;33.48;28.72;101307.19;5094825;27;70755;-47
2023/08/06 07:51:56;;;;;;;;;1.00;1.00;;;;;34.05;29.04;101316.72;5088334;27;61599;-51
2023/08/06 07:54:24;;;;;;;;;3.00;1.50;;;;;34.47;27.84;101308.81;5077271;27;45568;-51
2023/08/06 07:56:49;;;;;;;;;1.00;1.00;;;;;32.37;28.21;101321.63;5084991;27;45420;-49
2023/08/06 07:59:14;;;;;;;;;2.75;1.50;;;;;30.49;29.54;101321.34;5094010;27;45365;-47
2023/08/06 08:01:40;;;;;;;;;3.00;1.00;;;;;29.79;30.17;101334.63;5092503;27;45794;-49
2023/08/06 08:04:05;;;;;;;;;2.00;2.00;;;;;31.44;30.10;101326.50;5086997;27;63168;-48
2023/08/06 08:06:30;;;;;;;;;1.00;1.00;;;;;32.60;29.62;101322.06;5079624;27;46919;-49
2023/08/06 08:08:56;;;;;;;;;1.00;1.00;;;;;34.29;27.28;101328.88;5084719;27;68803;-50
2023/08/06 08:11:21;;;;;;;;;2.00;1.25;;;;;33.43;26.93;101336.47;5094853;27;45622;-51
2023/08/06 08:13:46;;;;;;;;;1.00;1.00;;;;;32.50;27.46;101338.13;5097127;27;45614;-48
2023/08/06 08:16:12;;;;;;;;;1.00;1.00;;;;;30.01;28.25;101348.41;5095799;27;75003;-49
2023/08/06 08:18:37;;;;;;;;;1.00;1.00;;;;;28.85;30.62;101344.19;5082286;27;64931;-49
2023/08/06 08:21:02;;;;;;;;;1.00;1.00;;;;;28.84;30.99;101347.94;5087985;27;45645;-47
2023/08/06 08:23:28;;;;;;;;;1.00;1.00;;;;;28.59;31.67;101340.94;5081898;27;45474;-48
2023/08/06 08:25:54;;;;;;;;;1.00;1.00;;;;;28.78;31.37;101347.84;5087002;27;48913;-46
2023/08/06 08:28:20;;;;;;;;;1.75;1.75;;;;;30.13;29.81;101355.09;5093333;27;45508;-49
2023/08/06 08:30:45;;;;;;;;;0.75;0.75;;;;;32.80;28.94;101346.91;5095494;27;45415;-47
2023/08/06 08:33:11;;;;;;;;;3.00;1.00;;;;;35.20;25.82;101350.69;5075759;27;45461;-49
2023/08/06 08:35:37;;;;;;;;;2.00;2.00;;;;;37.20;25.24;101360.13;5080321;27;46116;-51
2023/08/06 08:38:02;;;;;;;;;2.25;2.25;;;;;38.52;23.63;101359.53;5087924;27;45513;-51
2023/08/06 08:40:32;;;;;;;;;1.00;1.00;;;;;39.80;21.92;101348.69;5089364;27;45452;-50
2023/08/06 08:42:58;;;;;;;;;1.75;0.75;;;;;41.07;20.64;101364.16;5087919;27;45803;-48
2023/08/06 08:45:26;;;;;;;;;1.00;1.00;;;;;39.80;21.30;101374.56;5084258;27;46383;-44
2023/08/06 08:47:52;;;;;;;;;0.20;0.20;;;;;38.48;21.24;101366.69;5085635;27;45396;-43
2023/08/06 08:50:19;;;;;;;;;1.00;1.00;;;;;37.06;23.33;101370.59;5091811;27;52474;-47
2023/08/06 08:52:48;;;;;;;;;1.75;0.00;;;;;34.99;23.81;101380.44;5070242;27;45555;-44
2023/08/06 08:55:15;;;;;;;;;0.00;0.00;;;;;35.17;23.78;101378.81;5090836;27;47066;-45
2023/08/06 08:57:40;;;;;;;;;0.00;0.00;;;;;37.23;22.68;101371.56;5077181;28;45387;-47
2023/08/06 09:00:06;;;;;;;;;0.00;0.00;;;;;39.12;22.66;101385.00;5057728;28;67643;-46
2023/08/06 09:02:33;;;;;;;;;1.50;0.50;;;;;40.10;21.19;101386.34;5078256;28;45398;-45
2023/08/06 09:05:02;;;;;;;;;1.50;0.00;;;;;40.09;20.10;101387.44;5077623;27;48422;-48
2023/08/06 09:07:29;;;;;;;;;1.40;1.40;;;;;39.98;19.27;101381.75;5085438;27;45573;-46
2023/08/06 09:09:56;;;;;;;;;0.60;0.60;;;;;38.02;19.46;101386.09;5060389;28;45367;-47
2023/08/06 09:12:22;;;;;;;;;0.00;0.00;;;;;36.74;22.00;101401.38;5060403;28;45501;-45
2023/08/06 09:14:47;;;;;;;;;0.25;0.25;;;;;38.03;21.38;101393.28;5083171;27;65729;-46
2023/08/06 09:17:13;;;;;;;;;1.00;1.00;;;;;39.80;20.53;101394.03;5083520;27;72970;-47
2023/08/06 09:19:45;;;;;;;;;0.75;0.75;;;;;40.67;20.51;101396.97;5083582;27;45422;-45
2023/08/06 09:22:13;;;;;;;;;1.00;0.75;;;;;41.05;18.86;101408.19;5083424;27;45461;-48
2023/08/06 09:24:40;;;;;;;;;0.00;0.00;;;;;41.49;19.06;101395.94;5060228;28;46206;-45
2023/08/06 09:27:10;;;;;;;;;0.40;0.40;;;;;41.78;17.37;101409.47;5078971;27;45388;-45
2023/08/06 09:29:40;;;;;;;;;2.00;1.80;;;;;39.32;18.52;101415.94;5085839;27;45413;-46
2023/08/06 09:32:06;;;;;;;;;0.00;0.00;;;;;36.23;21.06;101426.59;5093785;27;45521;-48
2023/08/06 09:34:31;;;;;;;;;0.75;0.75;;;;;34.18;22.78;101420.66;5079288;27;46078;-45
2023/08/06 09:36:56;;;;;;;;;1.00;1.00;;;;;34.56;22.92;101417.94;5077827;27;69758;-46
2023/08/06 09:39:27;;;;;;;;;0.50;0.50;;;;;36.14;22.54;101411.38;5080964;27;45589;-46
2023/08/06 09:41:57;;;;;;;;;2.50;0.75;;;;;37.12;21.65;101416.78;5072994;27;46546;-47
2023/08/06 09:44:25;;;;;;;;;0.00;0.00;;;;;38.27;21.26;101415.47;5088127;27;45769;-45
2023/08/06 09:46:51;;;;;;;;;0.50;0.00;;;;;38.39;20.77;101400.41;5082501;27;45468;-45
2023/08/06 09:49:18;;;;;;;;;1.75;0.00;;;;;37.60;20.54;101411.22;5094126;27;45450;-46
2023/08/06 09:51:44;;;;;;;;;0.50;0.50;;;;;35.19;21.46;101424.50;5085842;27;45367;-46
2023/08/06 09:54:12;;;;;;;;;0.00;0.00;;;;;34.98;22.17;101419.34;5081698;27;46218;-46
2023/08/06 09:56:37;;;;;;;;;3.75;0.50;;;;;34.43;22.53;101410.56;5090367;27;45522;-45
2023/08/06 09:59:06;;;;;;;;;1.00;0.00;;;;;32.80;22.96;101418.50;5093249;27;57066;-45
2023/08/06 10:01:36;;;;;;;;;0.25;0.25;;;;;31.28;23.95;101423.84;5093177;27;45695;-45
2023/08/06 10:04:07;;;;;;;;;3.00;2.25;;;;;30.13;26.12;101417.31;5092441;27;46207;-45
2023/08/06 10:06:35;;;;;;;;;0.75;0.75;;;;;30.29;26.56;101419.84;5096453;27;45487;-45
2023/08/06 10:09:01;;;;;;;;;1.50;1.50;;;;;32.59;25.25;101415.88;5087553;27;45447;-46
2023/08/06 10:11:27;;;;;;;;;0.50;0.50;;;;;34.81;24.13;101414.38;5093535;27;45352;-45
2023/08/06 10:13:57;;;;;;;;;0.25;0.00;;;;;36.67;22.35;101425.56;5068267;27;75230;-46
2023/08/06 10:16:23;;;;;;;;;3.75;1.75;;;;;35.98;22.26;101429.44;5083031;27;45338;-45
2023/08/06 10:18:49;;;;;;;;;1.00;0.75;;;;;33.91;22.72;101442.81;5081325;27;45656;-46
2023/08/06 10:21:15;;;;;;;;;1.00;0.50;;;;;32.02;23.99;101429.84;5098398;27;69337;-45
2023/08/06 10:23:41;;;;;;;;;1.75;1.75;;;;;32.44;24.62;101438.91;5100874;27;46138;-46
2023/08/06 10:26:08;;;;;;;;;1.00;1.00;;;;;34.32;24.17;101426.97;5088839;27;45421;-48
2023/08/06 10:28:38;;;;;;;;;1.75;1.75;;;;;35.81;23.23;101412.59;5091323;27;45367;-46
2023/08/06 10:31:06;;;;;;;;;1.00;1.00;;;;;36.89;21.18;101425.91;5093896;27;45288;-43
2023/08/06 10:33:46;;;;;;;;;1.25;1.25;;;;;37.44;19.93;101433.06;5093852;27;46189;-45
2023/08/06 10:36:12;;;;;;;;;0.00;0.00;;;;;36.01;20.80;101429.00;5089038;27;45722;-48
2023/08/06 10:38:45;;;;;;;;;2.00;0.25;;;;;33.90;22.33;101428.19;5074108;27;45270;-46
2023/08/06 10:41:16;;;;;;;;;1.00;1.00;;;;;32.37;23.66;101442.69;5095706;27;45720;-46
2023/08/06 10:43:43;;;;;;;;;0.00;0.00;;;;;31.11;24.19;101433.44;5082660;27;46175;-46
2023/08/06 10:46:26;;;;;;;;;0.00;0.00;;;;;31.76;25.50;101436.91;5091120;27;45425;-44
2023/08/06 10:48:51;;;;;;;;;0.00;0.00;;;;;32.96;23.54;101435.66;5091368;27;45625;-45
2023/08/06 10:51:17;;;;;;;;;0.00;0.00;;;;;34.11;23.07;101438.06;5086816;27;45590;-45
2023/08/06 10:53:47;;;;;;;;;0.00;0.00;;;;;33.56;22.57;101445.81;5100649;27;46102;-47
2023/08/06 10:56:17;;;;;;;;;1.40;0.00;;;;;32.54;23.71;101448.69;5089476;27;45656;-47
2023/08/06 10:58:44;;;;;;;;;0.00;0.00;;;;;31.10;24.56;101449.03;5082405;27;45523;-46
2023/08/06 11:01:10;;;;;;;;;1.25;0.00;;;;;30.59;25.73;101449.97;5086699;27;45466;-46
2023/08/06 11:03:36;;;;;;;;;0.50;0.50;;;;;31.75;25.64;101445.34;5077778;27;47097;-45
2023/08/06 11:06:02;;;;;;;;;0.00;0.00;;;;;32.98;24.43;101450.06;5074038;27;45517;-46
2023/08/06 11:08:32;;;;;;;;;0.00;0.00;;;;;33.16;23.85;101441.19;5100623;27;45271;-46
2023/08/06 11:11:11;;;;;;;;;0.00;0.00;;;;;32.07;24.05;101445.72;5087247;27;45441;-48
2023/08/06 11:13:38;;;;;;;;;1.75;1.25;;;;;30.58;25.34;101450.19;5089581;27;46171;-46
2023/08/06 11:16:05;;;;;;;;;0.80;0.80;;;;;29.12;26.28;101450.53;5086767;27;45449;-46
2023/08/06 11:18:30;;;;;;;;;0.00;0.00;;;;;27.94;27.67;101457.81;5089429;27;45330;-46
2023/08/06 11:20:55;;;;;;;;;0.00;0.00;;;;;27.08;28.07;101452.78;5080823;27;67501;-46